Time;durP1;ratioP1;P1;durP2;ratioP2;P2;SDS_P1;SDS_P2;PMS_P1;PMS_P2;Temp;Humidity;BMP_temperature;BMP_pressure;BME280_temperature;BME280_humidity;BME280_pressure;Samples;Min_cycle;Max_cycle;Signal;HPM_P1;HPM_P2
2023/09/04 00:02:01;;;;;;;2.40;1.80;;;14.20;99.90;;;;;;5029703;28;20038;-69
2023/09/04 00:04:27;;;;;;;2.63;1.50;;;14.20;99.90;;;;;;5029870;28;20045;-70
2023/09/04 00:06:53;;;;;;;2.20;1.70;;;14.20;99.90;;;;;;5029075;28;20068;-70
2023/09/04 00:09:19;;;;;;;1.80;1.70;;;14.20;99.90;;;;;;5029591;28;20438;-69
2023/09/04 00:11:44;;;;;;;2.05;1.70;;;14.10;99.90;;;;;;5029731;28;20034;-70
2023/09/04 00:14:11;;;;;;;1.75;1.65;;;14.10;99.90;;;;;;5029251;28;20052;-70
2023/09/04 00:16:37;;;;;;;1.85;1.70;;;14.20;99.90;;;;;;5011734;28;20053;-69
2023/09/04 00:19:03;;;;;;;1.90;1.70;;;14.20;99.90;;;;;;5029733;28;20068;-70
2023/09/04 00:21:29;;;;;;;1.63;1.48;;;14.20;99.90;;;;;;5029019;28;20501;-70
2023/09/04 00:23:54;;;;;;;2.60;1.80;;;14.20;99.90;;;;;;5029578;28;20437;-70
2023/09/04 00:26:20;;;;;;;4.32;1.40;;;14.20;99.90;;;;;;5011603;28;20050;-69
2023/09/04 00:28:46;;;;;;;1.70;1.58;;;14.20;99.90;;;;;;5029888;28;20405;-70
2023/09/04 00:31:11;;;;;;;3.03;2.00;;;14.10;99.90;;;;;;5029734;28;20075;-70
2023/09/04 00:33:38;;;;;;;1.70;1.60;;;14.00;99.90;;;;;;5029594;28;20150;-70
2023/09/04 00:36:03;;;;;;;1.63;1.38;;;14.00;99.90;;;;;;5029306;28;20057;-70
2023/09/04 00:38:29;;;;;;;2.10;1.60;;;14.00;99.90;;;;;;5029596;28;20509;-70
2023/09/04 00:40:55;;;;;;;2.63;2.42;;;14.00;99.90;;;;;;5029314;28;20421;-69
2023/09/04 00:43:21;;;;;;;2.15;1.90;;;13.90;99.90;;;;;;5011554;28;20096;-70
2023/09/04 00:45:47;;;;;;;2.58;2.38;;;13.90;99.90;;;;;;5029328;28;20096;-69
2023/09/04 00:48:13;;;;;;;2.28;2.00;;;13.80;99.90;;;;;;5011583;28;20123;-70
2023/09/04 00:50:42;;;;;;;1.83;1.73;;;13.90;99.90;;;;;;5010971;28;20045;-70
2023/09/04 00:53:09;;;;;;;1.85;1.70;;;13.90;99.90;;;;;;5011641;28;20080;-70
2023/09/04 00:55:37;;;;;;;2.20;2.00;;;13.80;99.90;;;;;;5011844;28;20121;-69
2023/09/04 00:58:03;;;;;;;2.92;1.75;;;13.80;99.90;;;;;;5029507;28;20477;-70
2023/09/04 01:00:29;;;;;;;2.75;2.53;;;13.80;99.90;;;;;;5029331;28;20512;-70
2023/09/04 01:02:59;;;;;;;2.28;2.08;;;13.80;99.90;;;;;;5029540;28;20042;-70
2023/09/04 01:05:28;;;;;;;1.70;1.60;;;13.80;99.90;;;;;;5029074;28;20037;-70
2023/09/04 01:07:54;;;;;;;2.20;2.00;;;13.80;99.90;;;;;;5029254;28;20175;-70
2023/09/04 01:10:21;;;;;;;2.05;1.85;;;13.80;99.90;;;;;;5029301;28;20041;-70
2023/09/04 01:12:58;;;;;;;2.13;2.00;;;13.70;99.90;;;;;;5011346;28;20041;-70
2023/09/04 01:15:26;;;;;;;1.70;1.60;;;13.70;99.90;;;;;;5011310;28;20049;-69
2023/09/04 01:17:53;;;;;;;1.92;1.75;;;13.70;99.90;;;;;;5028608;28;20041;-70
2023/09/04 01:20:29;;;;;;;1.92;1.83;;;13.70;99.90;;;;;;5010967;28;20041;-70
2023/09/04 01:22:56;;;;;;;1.85;1.73;;;13.70;99.90;;;;;;5028795;28;20062;-70
2023/09/04 01:25:49;;;;;;;1.70;1.60;;;13.70;99.90;;;;;;5030191;28;20033;-69
2023/09/04 01:28:27;;;;;;;1.67;1.50;;;13.70;99.90;;;;;;5024127;28;20057;-69
2023/09/04 01:31:14;;;;;;;2.25;1.80;;;13.60;99.90;;;;;;5032593;28;20404;-69
2023/09/04 01:33:49;;;;;;;1.80;1.70;;;13.60;99.90;;;;;;5014400;28;20081;-70
2023/09/04 01:36:17;;;;;;;1.95;1.75;;;13.50;99.90;;;;;;5014322;28;20052;-69
2023/09/04 01:38:46;;;;;;;1.55;1.45;;;13.50;99.90;;;;;;5014355;28;20037;-69
2023/09/04 01:41:12;;;;;;;1.90;1.80;;;13.50;99.90;;;;;;5032717;28;20284;-69
2023/09/04 01:43:38;;;;;;;3.42;1.83;;;13.50;99.90;;;;;;5032088;28;20565;-69
2023/09/04 01:46:04;;;;;;;3.67;1.80;;;13.40;99.90;;;;;;5014448;28;20045;-68
2023/09/04 01:48:30;;;;;;;2.60;2.00;;;13.40;99.90;;;;;;5031855;28;20181;-69
2023/09/04 01:50:55;;;;;;;1.70;1.60;;;13.30;99.90;;;;;;5031927;28;20044;-69
2023/09/04 01:53:22;;;;;;;2.17;1.98;;;13.30;99.90;;;;;;5014028;28;20045;-69
2023/09/04 01:55:48;;;;;;;1.98;1.70;;;13.20;99.90;;;;;;4997682;28;20089;-69
2023/09/04 01:58:13;;;;;;;2.28;2.08;;;13.20;99.90;;;;;;5032024;28;20073;-69
2023/09/04 02:00:39;;;;;;;2.72;2.53;;;13.20;99.90;;;;;;5031634;28;20041;-69
2023/09/04 02:03:05;;;;;;;4.13;2.50;;;13.20;99.90;;;;;;5031514;28;20037;-69
2023/09/04 02:05:30;;;;;;;3.90;2.60;;;13.20;99.90;;;;;;5032016;28;20378;-69
2023/09/04 02:07:56;;;;;;;2.70;2.50;;;13.20;99.90;;;;;;5031635;28;20444;-69
2023/09/04 02:10:23;;;;;;;2.97;2.67;;;13.20;99.90;;;;;;5031709;28;20041;-69
2023/09/04 02:12:49;;;;;;;2.83;2.50;;;13.20;99.90;;;;;;4997371;28;20535;-69
2023/09/04 02:15:16;;;;;;;2.63;2.40;;;13.20;99.90;;;;;;5013555;28;20041;-69
2023/09/04 02:17:41;;;;;;;2.88;2.65;;;13.20;99.90;;;;;;5031332;28;20477;-68
2023/09/04 02:20:08;;;;;;;3.75;2.80;;;13.10;99.90;;;;;;5031303;28;20085;-69
2023/09/04 02:22:34;;;;;;;4.22;2.67;;;13.10;99.90;;;;;;5031126;28;20050;-69
2023/09/04 02:24:59;;;;;;;2.20;2.00;;;13.10;99.90;;;;;;5013335;28;20041;-69
2023/09/04 02:27:25;;;;;;;2.65;2.25;;;13.10;99.90;;;;;;5031296;28;20454;-69
2023/09/04 02:29:51;;;;;;;4.03;2.55;;;13.10;99.90;;;;;;5031316;28;20077;-69
2023/09/04 02:32:17;;;;;;;4.65;2.75;;;13.10;99.90;;;;;;5031241;28;20091;-69
2023/09/04 02:34:42;;;;;;;2.35;2.15;;;13.10;99.90;;;;;;5031320;28;20695;-69
2023/09/04 02:37:08;;;;;;;3.45;2.30;;;13.10;99.90;;;;;;5012178;28;20056;-69
2023/09/04 02:39:35;;;;;;;2.60;2.40;;;13.10;99.90;;;;;;5031001;28;20095;-69
2023/09/04 02:42:00;;;;;;;3.92;2.90;;;13.00;99.90;;;;;;5031098;28;20041;-69
2023/09/04 02:44:26;;;;;;;3.97;2.63;;;13.00;99.90;;;;;;5030907;28;20033;-69
2023/09/04 02:46:52;;;;;;;3.65;2.95;;;13.00;99.90;;;;;;4996611;28;20186;-69
2023/09/04 02:49:17;;;;;;;4.18;3.13;;;13.00;99.90;;;;;;5030964;28;20128;-69
2023/09/04 02:51:43;;;;;;;3.13;2.83;;;13.00;99.90;;;;;;5030985;28;20057;-69
2023/09/04 02:54:09;;;;;;;2.92;2.72;;;13.00;99.90;;;;;;5030952;28;20048;-69
2023/09/04 02:56:34;;;;;;;3.60;2.63;;;12.90;99.90;;;;;;5012660;28;20513;-69
2023/09/04 02:59:00;;;;;;;3.38;2.92;;;12.90;99.90;;;;;;5012776;28;20405;-71
2023/09/04 03:01:26;;;;;;;3.28;2.97;;;12.80;99.90;;;;;;5030386;28;20100;-69
2023/09/04 03:03:52;;;;;;;4.88;3.22;;;12.90;99.90;;;;;;5030605;28;20366;-69
2023/09/04 03:06:17;;;;;;;3.78;3.08;;;12.80;99.90;;;;;;5030432;28;20054;-69
2023/09/04 03:08:43;;;;;;;3.28;2.42;;;12.80;99.90;;;;;;5030367;28;20093;-69
2023/09/04 03:11:10;;;;;;;5.22;3.33;;;12.80;99.90;;;;;;4996151;28;20076;-69
2023/09/04 03:13:39;;;;;;;4.90;2.80;;;12.80;99.90;;;;;;5012333;28;20045;-69
2023/09/04 03:16:05;;;;;;;4.00;2.47;;;12.70;99.90;;;;;;5030145;28;20091;-69
2023/09/04 03:18:33;;;;;;;3.70;2.47;;;12.70;99.90;;;;;;5012326;28;20121;-69
2023/09/04 03:20:58;;;;;;;3.78;2.97;;;12.70;99.90;;;;;;5012290;28;20056;-69
2023/09/04 03:23:24;;;;;;;3.17;2.88;;;12.70;99.90;;;;;;5012187;28;20049;-70
2023/09/04 03:25:50;;;;;;;2.83;2.30;;;12.70;99.90;;;;;;5029843;28;20124;-69
2023/09/04 03:28:15;;;;;;;3.13;2.75;;;12.60;99.90;;;;;;5030058;28;20045;-69
2023/09/04 03:30:41;;;;;;;2.83;2.30;;;12.60;99.90;;;;;;5029772;28;20041;-69
2023/09/04 03:33:07;;;;;;;4.07;2.92;;;12.70;99.90;;;;;;5031100;28;20037;-69
2023/09/04 03:35:33;;;;;;;3.10;2.80;;;12.60;99.90;;;;;;5013608;28;20073;-68
2023/09/04 03:37:59;;;;;;;2.53;2.15;;;12.60;99.90;;;;;;5031142;28;20095;-69
2023/09/04 03:40:25;;;;;;;2.25;2.05;;;12.60;99.90;;;;;;5029865;28;20095;-69
2023/09/04 03:42:52;;;;;;;3.60;2.22;;;12.60;99.90;;;;;;5029768;28;20080;-69
2023/09/04 03:45:19;;;;;;;2.78;2.38;;;12.60;99.90;;;;;;5029701;28;20052;-69
2023/09/04 03:47:46;;;;;;;2.85;2.63;;;12.50;99.90;;;;;;5011848;28;20103;-69
2023/09/04 03:50:12;;;;;;;2.85;2.53;;;12.50;99.90;;;;;;5029869;28;20129;-69
2023/09/04 03:52:38;;;;;;;3.05;2.80;;;12.50;99.90;;;;;;5029885;28;20046;-69
2023/09/04 03:55:11;;;;;;;2.63;2.42;;;12.50;99.90;;;;;;5029671;28;20443;-70
2023/09/04 03:57:37;;;;;;;3.13;2.83;;;12.50;99.90;;;;;;5029379;28;20053;-70
2023/09/04 04:00:14;;;;;;;2.30;2.08;;;12.40;99.90;;;;;;5029463;28;20119;-69
2023/09/04 04:02:40;;;;;;;3.10;1.98;;;12.30;99.90;;;;;;5029449;28;20114;-70
2023/09/04 04:05:06;;;;;;;2.15;1.95;;;12.30;99.90;;;;;;5029636;28;20041;-70
2023/09/04 04:07:32;;;;;;;2.08;1.88;;;12.30;99.90;;;;;;5029393;28;20139;-70
2023/09/04 04:09:58;;;;;;;2.03;1.83;;;12.20;99.90;;;;;;5029521;28;20473;-70
2023/09/04 04:12:24;;;;;;;3.42;2.40;;;12.20;99.90;;;;;;4994871;28;20176;-70
2023/09/04 04:14:54;;;;;;;2.22;2.03;;;12.20;99.90;;;;;;5029387;28;20073;-70
2023/09/04 04:17:19;;;;;;;2.00;1.85;;;12.20;99.90;;;;;;5029311;28;20042;-70
2023/09/04 04:19:45;;;;;;;2.13;1.92;;;12.20;99.90;;;;;;5029370;28;20044;-70
2023/09/04 04:22:11;;;;;;;2.63;2.20;;;12.20;99.90;;;;;;5011149;28;20438;-69
2023/09/04 04:24:37;;;;;;;2.50;2.30;;;12.10;99.90;;;;;;5028750;28;20053;-70
2023/09/04 04:27:03;;;;;;;2.20;2.00;;;12.20;99.90;;;;;;5011110;28;20045;-70
2023/09/04 04:29:28;;;;;;;2.63;1.70;;;12.10;99.90;;;;;;5011344;28;20045;-69
2023/09/04 04:31:54;;;;;;;1.98;1.50;;;12.20;99.90;;;;;;4995068;28;20460;-69
2023/09/04 04:34:20;;;;;;;1.60;1.50;;;12.10;99.90;;;;;;5011343;28;20061;-70
2023/09/04 04:36:47;;;;;;;2.30;2.10;;;12.10;99.90;;;;;;5029100;28;20040;-70
2023/09/04 04:39:12;;;;;;;2.92;1.85;;;12.10;99.90;;;;;;5028890;28;20083;-70
2023/09/04 04:41:38;;;;;;;3.42;2.00;;;12.10;99.90;;;;;;5028720;28;20521;-69
2023/09/04 04:44:04;;;;;;;4.30;1.83;;;12.10;99.90;;;;;;5028628;28;20045;-69
2023/09/04 04:46:30;;;;;;;1.75;1.58;;;12.10;99.90;;;;;;4994669;28;20072;-69
2023/09/04 04:48:55;;;;;;;1.98;1.88;;;12.10;99.90;;;;;;5011051;28;20063;-69
2023/09/04 04:51:21;;;;;;;4.97;1.60;;;12.10;99.90;;;;;;5010985;28;20052;-69
2023/09/04 04:53:47;;;;;;;2.47;1.65;;;12.10;99.90;;;;;;5028888;28;20050;-69
2023/09/04 04:56:13;;;;;;;1.77;1.67;;;12.00;99.90;;;;;;5028810;28;20150;-69
2023/09/04 04:58:39;;;;;;;2.53;2.30;;;12.00;99.90;;;;;;5028923;28;20085;-69
2023/09/04 05:01:06;;;;;;;2.33;2.13;;;12.00;99.90;;;;;;5014098;28;20045;-69
2023/09/04 05:03:32;;;;;;;5.20;2.03;;;12.00;99.90;;;;;;5015091;28;20068;-69
2023/09/04 05:05:58;;;;;;;2.28;2.08;;;12.00;99.90;;;;;;5032599;28;20479;-69
2023/09/04 05:08:23;;;;;;;2.80;2.20;;;12.00;99.90;;;;;;5032447;28;20037;-69
2023/09/04 05:11:05;;;;;;;2.22;1.90;;;12.00;99.90;;;;;;5032647;28;20128;-68
2023/09/04 05:13:31;;;;;;;2.53;2.33;;;12.00;99.90;;;;;;5032983;28;20440;-69
2023/09/04 05:16:04;;;;;;;3.38;2.00;;;12.10;99.90;;;;;;5032612;28;20293;-69
2023/09/04 05:18:33;;;;;;;;;;;12.00;99.90;;;;;;5033302;28;20041;-69
2023/09/04 05:20:59;;;;;;;2.45;2.25;;;12.10;99.90;;;;;;4998911;28;19921;-69
2023/09/04 05:23:25;;;;;;;5.00;2.60;;;12.10;99.90;;;;;;5032724;28;20046;-69
2023/09/04 05:25:52;;;;;;;2.85;2.35;;;12.20;99.90;;;;;;5032108;28;20100;-69
2023/09/04 05:28:18;;;;;;;3.72;3.28;;;12.30;99.90;;;;;;5032810;28;20049;-69
2023/09/04 05:30:44;;;;;;;3.50;3.00;;;12.30;99.90;;;;;;5032588;28;20042;-69
2023/09/04 05:33:10;;;;;;;3.78;2.83;;;12.40;99.90;;;;;;5032754;28;20034;-69
2023/09/04 05:35:35;;;;;;;3.10;2.60;;;12.40;99.90;;;;;;5032680;28;20048;-69
2023/09/04 05:38:02;;;;;;;4.78;3.25;;;12.50;99.90;;;;;;5032206;28;20378;-69
2023/09/04 05:40:28;;;;;;;5.93;4.10;;;12.50;99.90;;;;;;5032099;28;20152;-69
2023/09/04 05:42:54;;;;;;;4.55;3.72;;;12.60;99.90;;;;;;5032641;28;20076;-69
2023/09/04 05:45:19;;;;;;;4.53;4.05;;;12.70;99.90;;;;;;5032302;28;20065;-69
2023/09/04 05:47:49;;;;;;;5.22;4.30;;;12.70;99.90;;;;;;5032516;28;20044;-69
2023/09/04 05:50:15;;;;;;;5.15;4.32;;;12.90;99.90;;;;;;5032553;28;20041;-69
2023/09/04 05:52:41;;;;;;;6.03;4.10;;;13.00;99.90;;;;;;4997975;28;20493;-69
2023/09/04 05:55:07;;;;;;;6.68;5.07;;;13.10;99.90;;;;;;5031780;28;20048;-70
2023/09/04 05:57:34;;;;;;;7.88;5.45;;;13.20;99.90;;;;;;5032203;28;20050;-70
2023/09/04 06:00:01;;;;;;;8.38;5.78;;;13.30;99.90;;;;;;5032102;28;20074;-70
2023/09/04 06:02:27;;;;;;;9.80;6.45;;;13.40;99.90;;;;;;5014029;28;20041;-70
2023/09/04 06:04:53;;;;;;;8.57;6.70;;;13.60;99.90;;;;;;5014676;28;20135;-69
2023/09/04 06:07:19;;;;;;;8.32;6.50;;;13.70;99.90;;;;;;5014068;28;20085;-70
2023/09/04 06:09:44;;;;;;;10.70;7.05;;;13.70;99.90;;;;;;5031566;28;20080;-70
2023/09/04 06:12:11;;;;;;;10.05;6.68;;;13.80;99.90;;;;;;5031754;28;20041;-70
2023/09/04 06:14:38;;;;;;;7.90;6.65;;;13.90;99.90;;;;;;5014128;28;20408;-70
2023/09/04 06:17:04;;;;;;;9.65;7.43;;;14.00;99.90;;;;;;5031930;28;20537;-70
2023/09/04 06:19:30;;;;;;;10.45;7.30;;;14.00;99.90;;;;;;5031556;28;20128;-70
2023/09/04 06:21:56;;;;;;;10.68;7.50;;;14.10;99.90;;;;;;5031368;28;20058;-70
2023/09/04 06:24:22;;;;;;;8.10;7.18;;;14.20;99.90;;;;;;5031407;28;20045;-70
2023/09/04 06:26:48;;;;;;;9.55;7.63;;;14.40;99.90;;;;;;5030743;28;20531;-70
2023/09/04 06:29:16;;;;;;;13.82;8.23;;;14.50;99.90;;;;;;5013622;28;20129;-70
2023/09/04 06:31:42;;;;;;;11.95;8.80;;;14.50;99.90;;;;;;5031230;28;20405;-70
2023/09/04 06:34:08;;;;;;;10.57;8.18;;;14.70;99.90;;;;;;5031332;28;20049;-71
2023/09/04 06:36:34;;;;;;;10.95;8.18;;;14.70;99.90;;;;;;5031167;28;20607;-70
2023/09/04 06:39:00;;;;;;;13.65;8.13;;;14.80;99.90;;;;;;5031009;28;20156;-71
2023/09/04 06:41:26;;;;;;;12.48;8.02;;;14.90;99.90;;;;;;5031192;28;20041;-70
2023/09/04 06:43:51;;;;;;;13.60;8.15;;;14.90;99.90;;;;;;5031186;28;20398;-70
2023/09/04 06:46:17;;;;;;;10.88;8.23;;;15.00;99.90;;;;;;5030885;28;20655;-70
2023/09/04 06:48:43;;;;;;;10.38;8.10;;;15.10;99.90;;;;;;5013522;28;20132;-70
2023/09/04 06:51:09;;;;;;;9.95;8.30;;;15.10;99.90;;;;;;5031078;28;20049;-70
2023/09/04 06:53:34;;;;;;;11.25;8.00;;;15.10;99.90;;;;;;5030804;28;20056;-71
2023/09/04 06:56:00;;;;;;;10.38;7.97;;;15.10;99.90;;;;;;5012975;28;20426;-70
2023/09/04 06:58:26;;;;;;;13.15;8.05;;;15.10;99.90;;;;;;5030652;28;20049;-70
2023/09/04 07:00:52;;;;;;;13.98;8.27;;;15.20;99.90;;;;;;5030779;28;20124;-70
2023/09/04 07:03:18;;;;;;;10.95;8.80;;;15.30;99.90;;;;;;5030754;28;20107;-71
2023/09/04 07:05:44;;;;;;;11.57;9.57;;;15.30;99.90;;;;;;5030635;28;20462;-70
2023/09/04 07:08:09;;;;;;;10.52;8.60;;;15.40;99.90;;;;;;5030617;28;20044;-70
2023/09/04 07:10:35;;;;;;;12.75;9.55;;;15.40;99.90;;;;;;5030643;28;20485;-70
2023/09/04 07:13:02;;;;;;;14.30;8.65;;;15.40;99.90;;;;;;5030739;28;20041;-70
2023/09/04 07:15:27;;;;;;;13.60;8.80;;;15.50;99.90;;;;;;5030467;28;20203;-70
2023/09/04 07:17:53;;;;;;;12.38;9.55;;;15.50;99.90;;;;;;5012737;28;20051;-70
2023/09/04 07:20:19;;;;;;;12.02;8.55;;;15.60;99.90;;;;;;5012602;28;20041;-70
2023/09/04 07:22:45;;;;;;;11.50;8.75;;;15.60;99.90;;;;;;5029475;28;20200;-70
2023/09/04 07:25:11;;;;;;;12.35;10.05;;;15.70;99.90;;;;;;5030292;28;20045;-70
2023/09/04 07:27:37;;;;;;;11.85;9.38;;;15.80;99.90;;;;;;5030256;28;20038;-70
2023/09/04 07:30:03;;;;;;;13.38;9.77;;;15.90;99.90;;;;;;5030547;28;20042;-70
2023/09/04 07:32:29;;;;;;;17.70;10.38;;;15.90;99.90;;;;;;5012479;28;20079;-71
2023/09/04 07:34:56;;;;;;;14.75;10.25;;;16.00;99.90;;;;;;5029939;28;20064;-70
2023/09/04 07:37:25;;;;;;;15.05;9.95;;;16.10;99.90;;;;;;5012257;28;20045;-70
2023/09/04 07:39:51;;;;;;;14.25;11.00;;;16.20;99.90;;;;;;5012912;28;20053;-70
2023/09/04 07:42:17;;;;;;;15.60;10.05;;;16.30;99.90;;;;;;5030159;28;20099;-70
2023/09/04 07:44:43;;;;;;;14.00;10.48;;;16.30;99.90;;;;;;4995883;28;20053;-70
2023/09/04 07:47:09;;;;;;;14.93;10.30;;;16.40;99.90;;;;;;5029974;28;20048;-70
2023/09/04 07:49:34;;;;;;;17.15;10.38;;;16.50;99.90;;;;;;5012402;28;20041;-70
2023/09/04 07:52:00;;;;;;;10.57;9.07;;;16.60;99.90;;;;;;5029670;28;20175;-70
2023/09/04 07:54:26;;;;;;;11.23;8.68;;;16.70;99.90;;;;;;5012043;28;20044;-70
2023/09/04 07:56:52;;;;;;;11.07;8.63;;;16.80;99.90;;;;;;5011874;28;20511;-70
2023/09/04 07:59:17;;;;;;;9.80;7.88;;;17.00;99.90;;;;;;5011958;28;20815;-70
2023/09/04 08:01:43;;;;;;;10.20;7.45;;;17.00;99.90;;;;;;5029844;28;20037;-70
2023/09/04 08:04:09;;;;;;;8.82;6.75;;;17.00;99.90;;;;;;5029444;28;20400;-70
2023/09/04 08:06:35;;;;;;;9.20;7.20;;;17.10;99.90;;;;;;5029603;28;20037;-70
2023/09/04 08:09:01;;;;;;;8.32;7.00;;;17.20;99.90;;;;;;5029822;28;20033;-70
2023/09/04 08:11:27;;;;;;;8.27;6.78;;;17.30;99.90;;;;;;5029811;28;20509;-70
2023/09/04 08:13:53;;;;;;;10.10;7.10;;;17.40;99.90;;;;;;5029521;28;20493;-70
2023/09/04 08:16:18;;;;;;;8.52;7.47;;;17.50;99.90;;;;;;5029411;28;20069;-70
2023/09/04 08:18:44;;;;;;;8.57;6.38;;;17.50;99.90;;;;;;5029598;28;20113;-70
2023/09/04 08:21:10;;;;;;;9.02;5.90;;;17.60;99.90;;;;;;5029413;28;20136;-69
2023/09/04 08:23:36;;;;;;;9.35;5.28;;;17.80;99.90;;;;;;5029514;28;20497;-70
2023/09/04 08:26:03;;;;;;;7.45;6.03;;;17.90;99.90;;;;;;5011459;28;20064;-70
2023/09/04 08:28:29;;;;;;;6.22;5.38;;;17.90;99.90;;;;;;5029389;28;20045;-70
2023/09/04 08:30:55;;;;;;;5.93;5.10;;;18.00;99.90;;;;;;5029626;28;20064;-70
2023/09/04 08:33:21;;;;;;;6.65;5.00;;;18.00;99.90;;;;;;5029368;28;20045;-70
2023/09/04 08:35:46;;;;;;;6.57;4.72;;;18.10;99.90;;;;;;5032343;28;20045;-70
2023/09/04 08:38:12;;;;;;;5.93;4.30;;;18.20;99.90;;;;;;5033515;28;20414;-70
2023/09/04 08:40:40;;;;;;;5.68;4.05;;;18.30;99.90;;;;;;5033584;28;20057;-70
2023/09/04 08:43:09;;;;;;;9.15;4.65;;;18.40;99.90;;;;;;5000520;28;20146;-70
2023/09/04 08:45:36;;;;;;;5.80;4.70;;;18.50;99.90;;;;;;5033647;28;20071;-70
2023/09/04 08:48:03;;;;;;;7.10;3.85;;;18.50;99.90;;;;;;5033416;28;20045;-70
2023/09/04 08:50:30;;;;;;;6.32;4.32;;;18.60;99.90;;;;;;5033531;28;20103;-70
2023/09/04 08:52:56;;;;;;;5.78;4.20;;;18.60;99.90;;;;;;5016079;28;20045;-70
2023/09/04 08:55:22;;;;;;;4.70;3.63;;;18.70;99.90;;;;;;5033242;28;20131;-69
2023/09/04 08:57:48;;;;;;;5.50;4.00;;;18.80;99.90;;;;;;5033473;28;20045;-70
2023/09/04 09:00:17;;;;;;;5.15;3.95;;;18.90;99.90;;;;;;5033001;28;20048;-69
2023/09/04 09:02:43;;;;;;;5.07;4.03;;;18.90;99.90;;;;;;5015491;28;20080;-70
2023/09/04 09:05:12;;;;;;;6.70;3.92;;;19.00;99.90;;;;;;5015355;28;20489;-70
2023/09/04 09:07:40;;;;;;;5.28;3.97;;;19.10;99.90;;;;;;4998769;28;20132;-70
2023/09/04 09:10:09;;;;;;;4.38;3.00;;;19.10;99.90;;;;;;5032910;28;20489;-70
2023/09/04 09:12:35;;;;;;;5.03;3.70;;;19.10;99.90;;;;;;5032596;28;20128;-70
2023/09/04 09:15:01;;;;;;;5.22;3.55;;;19.20;99.90;;;;;;5015265;28;20128;-71
2023/09/04 09:17:27;;;;;;;4.07;2.88;;;19.30;99.90;;;;;;5032848;28;20084;-71
2023/09/04 09:19:53;;;;;;;8.07;2.92;;;19.40;99.90;;;;;;5032619;28;20049;-70
2023/09/04 09:22:20;;;;;;;5.85;3.17;;;19.40;99.90;;;;;;5032628;28;20425;-70
2023/09/04 09:24:53;;;;;;;4.63;2.80;;;19.50;99.90;;;;;;5032638;28;20045;-70
2023/09/04 09:27:28;;;;;;;4.55;2.90;;;19.60;99.90;;;;;;5032575;28;20124;-70
2023/09/04 09:29:58;;;;;;;5.18;2.90;;;19.60;99.90;;;;;;5032937;28;20322;-71
2023/09/04 09:32:31;;;;;;;4.55;2.88;;;19.60;99.90;;;;;;5032495;28;20374;-71
2023/09/04 09:34:59;;;;;;;3.58;2.78;;;19.70;99.90;;;;;;5032512;28;20053;-70
2023/09/04 09:37:26;;;;;;;5.72;3.33;;;19.70;99.90;;;;;;5032399;28;20045;-71
2023/09/04 09:39:51;;;;;;;3.83;2.90;;;19.80;99.90;;;;;;5032589;28;20436;-70
2023/09/04 09:42:20;;;;;;;3.10;2.70;;;19.80;99.90;;;;;;4998219;28;20057;-70
2023/09/04 09:44:46;;;;;;;5.20;2.90;;;20.00;99.90;;;;;;5032472;28;20044;-70
2023/09/04 09:47:13;;;;;;;5.30;3.05;;;20.00;99.90;;;;;;5013895;28;20053;-70
2023/09/04 09:49:43;;;;;;;3.17;2.55;;;20.00;99.90;;;;;;5014413;28;20092;-70
2023/09/04 09:52:10;;;;;;;4.10;2.47;;;20.00;99.90;;;;;;5014564;28;20467;-70
2023/09/04 09:54:41;;;;;;;2.63;2.30;;;20.00;99.90;;;;;;5032376;28;20337;-70
2023/09/04 09:57:13;;;;;;;3.95;2.70;;;20.20;99.90;;;;;;5014041;28;20567;-70
2023/09/04 09:59:43;;;;;;;3.85;2.75;;;20.30;99.90;;;;;;5032129;28;20053;-70
2023/09/04 10:02:09;;;;;;;5.53;2.80;;;20.30;99.90;;;;;;5032062;28;20042;-70
2023/09/04 10:04:36;;;;;;;6.13;2.63;;;20.40;99.90;;;;;;5031960;28;20072;-70
2023/09/04 10:07:05;;;;;;;3.25;2.78;;;20.40;99.90;;;;;;5014137;28;20053;-70
2023/09/04 10:09:37;;;;;;;5.82;2.50;;;20.40;99.90;;;;;;5014279;28;20045;-71
2023/09/04 10:12:16;;;;;;;3.70;2.60;;;20.40;99.90;;;;;;5014734;28;20448;-71
2023/09/04 10:14:44;;;;;;;2.55;2.35;;;20.50;99.90;;;;;;5014050;28;20045;-71
2023/09/04 10:17:21;;;;;;;7.30;2.42;;;20.60;99.90;;;;;;5032058;28;20037;-70
2023/09/04 10:19:48;;;;;;;4.07;3.00;;;20.60;99.90;;;;;;5014087;28;20037;-71
2023/09/04 10:22:26;;;;;;;5.50;2.75;;;20.70;99.90;;;;;;5031632;28;20060;-70
2023/09/04 10:25:03;;;;;;;3.78;2.53;;;20.80;99.90;;;;;;5031455;28;20046;-70
2023/09/04 10:27:32;;;;;;;3.22;2.38;;;20.80;99.90;;;;;;5014059;28;20087;-70
2023/09/04 10:30:05;;;;;;;3.95;2.67;;;20.80;99.90;;;;;;5031312;28;20050;-71
2023/09/04 10:32:31;;;;;;;3.75;2.60;;;20.90;99.90;;;;;;5031678;28;20090;-70
2023/09/04 10:34:57;;;;;;;4.22;3.00;;;20.80;99.90;;;;;;5031490;28;20072;-70
2023/09/04 10:37:26;;;;;;;3.55;2.53;;;20.80;99.90;;;;;;5031222;28;20049;-70
2023/09/04 10:39:53;;;;;;;3.58;2.35;;;20.90;99.90;;;;;;5030907;28;20045;-70
2023/09/04 10:42:20;;;;;;;4.50;2.78;;;20.80;99.90;;;;;;5013184;28;20098;-70
2023/09/04 10:44:47;;;;;;;5.07;2.60;;;21.00;99.90;;;;;;5030763;28;20071;-70
2023/09/04 10:47:14;;;;;;;4.10;2.80;;;21.10;99.90;;;;;;4996868;28;20092;-70
2023/09/04 10:49:42;;;;;;;3.03;2.25;;;21.00;99.90;;;;;;5031058;28;20033;-71
2023/09/04 10:52:08;;;;;;;4.18;2.72;;;21.20;99.90;;;;;;5013236;28;20049;-70
2023/09/04 10:54:34;;;;;;;5.38;2.90;;;21.30;99.90;;;;;;5013063;28;20127;-70
2023/09/04 10:57:05;;;;;;;2.83;2.63;;;21.30;99.90;;;;;;5012255;28;20069;-70
2023/09/04 10:59:51;;;;;;;4.43;2.95;;;21.40;99.90;;;;;;5030605;28;20045;-70
2023/09/04 11:02:28;;;;;;;3.88;2.70;;;21.30;99.90;;;;;;5012867;28;20051;-70
2023/09/04 11:04:54;;;;;;;3.28;2.90;;;21.30;99.90;;;;;;5012974;28;20298;-70
2023/09/04 11:07:20;;;;;;;2.83;2.50;;;21.30;99.90;;;;;;5030381;28;20042;-71
2023/09/04 11:10:06;;;;;;;3.80;2.35;;;21.50;99.90;;;;;;5012696;28;20401;-70
2023/09/04 11:12:36;;;;;;;4.05;2.08;;;21.50;99.90;;;;;;4973125;28;20049;-71
2023/09/04 11:15:11;;;;;;;4.93;2.40;;;21.50;99.90;;;;;;5012336;28;20516;-70
2023/09/04 11:17:39;;;;;;;2.97;2.20;;;21.50;99.90;;;;;;5012575;28;20234;-71
2023/09/04 11:20:06;;;;;;;2.95;2.20;;;21.70;99.90;;;;;;5012714;28;20049;-70
2023/09/04 11:22:33;;;;;;;5.20;2.65;;;21.90;99.90;;;;;;5012315;28;20068;-71
2023/09/04 11:25:00;;;;;;;2.63;2.13;;;21.80;99.90;;;;;;5012100;28;20044;-70
2023/09/04 11:27:26;;;;;;;3.33;2.35;;;21.70;99.90;;;;;;5030238;28;20448;-70
2023/09/04 11:29:52;;;;;;;2.55;1.92;;;21.90;99.90;;;;;;5030270;28;20041;-71
2023/09/04 11:32:19;;;;;;;7.60;2.00;;;22.00;99.90;;;;;;4995988;28;20056;-71
2023/09/04 11:34:50;;;;;;;2.13;1.88;;;22.10;99.90;;;;;;5012571;28;20053;-71
2023/09/04 11:37:16;;;;;;;2.42;1.83;;;22.00;99.90;;;;;;5012417;28;20438;-70
2023/09/04 11:39:55;;;;;;;2.72;1.90;;;22.10;99.90;;;;;;5030190;28;20041;-71
2023/09/04 11:42:22;;;;;;;5.63;2.03;;;22.00;99.90;;;;;;5012299;28;20374;-70
2023/09/04 11:44:49;;;;;;;3.25;2.03;;;22.10;99.90;;;;;;5012027;28;20049;-71
2023/09/04 11:47:19;;;;;;;2.55;1.92;;;22.20;99.90;;;;;;5012422;28;20409;-70
2023/09/04 11:49:48;;;;;;;3.30;2.00;;;22.30;99.90;;;;;;5029882;28;20124;-71
2023/09/04 11:52:16;;;;;;;2.58;1.88;;;22.20;99.90;;;;;;5030082;28;20091;-71
2023/09/04 11:54:43;;;;;;;2.88;1.60;;;22.40;99.90;;;;;;5030111;28;20047;-71
2023/09/04 11:57:09;;;;;;;2.20;1.60;;;22.40;99.90;;;;;;5029424;28;20080;-70
2023/09/04 11:59:40;;;;;;;3.65;1.75;;;22.50;99.90;;;;;;5030005;28;20041;-70
2023/09/04 12:02:10;;;;;;;2.08;1.75;;;22.40;99.90;;;;;;5011861;28;20073;-70
2023/09/04 12:04:36;;;;;;;2.17;1.70;;;22.50;99.90;;;;;;4995444;28;20060;-70
2023/09/04 12:07:06;;;;;;;1.92;1.60;;;22.50;99.90;;;;;;5029654;28;20041;-71
2023/09/04 12:09:35;;;;;;;2.45;1.85;;;22.60;99.90;;;;;;5011957;28;20072;-70
2023/09/04 12:12:01;;;;;;;3.85;1.75;;;22.60;99.90;;;;;;5029348;28;20516;-70
2023/09/04 12:14:27;;;;;;;3.10;1.55;;;22.50;99.90;;;;;;5011823;28;20044;-71
2023/09/04 12:16:53;;;;;;;2.20;1.63;;;22.70;99.90;;;;;;5011752;28;20053;-70
2023/09/04 12:19:26;;;;;;;3.63;1.60;;;22.70;99.90;;;;;;5029667;28;20047;-70
2023/09/04 12:21:52;;;;;;;2.05;1.67;;;22.70;99.90;;;;;;5029210;28;20056;-71
2023/09/04 12:24:18;;;;;;;1.60;1.30;;;22.70;99.90;;;;;;5011472;28;20049;-70
2023/09/04 12:26:48;;;;;;;2.60;1.60;;;22.60;99.90;;;;;;5011524;28;20045;-70
2023/09/04 12:29:13;;;;;;;4.00;1.67;;;22.80;99.90;;;;;;5029296;28;20038;-71
2023/09/04 12:31:42;;;;;;;3.72;1.67;;;22.90;99.90;;;;;;5029155;28;20107;-70
2023/09/04 12:34:08;;;;;;;2.88;1.50;;;22.80;99.90;;;;;;5011498;28;20068;-70
2023/09/04 12:36:34;;;;;;;4.85;1.58;;;22.90;99.90;;;;;;5011551;28;20455;-70
2023/09/04 12:39:00;;;;;;;3.53;1.60;;;22.90;99.90;;;;;;5029091;28;20196;-70
2023/09/04 12:41:27;;;;;;;2.00;1.10;;;23.00;99.90;;;;;;4994935;28;20033;-70
2023/09/04 12:43:53;;;;;;;1.60;1.27;;;22.90;99.90;;;;;;5011476;28;20053;-70
2023/09/04 12:46:19;;;;;;;2.10;1.58;;;23.00;99.90;;;;;;5029453;28;20125;-70